Time;durP1;ratioP1;P1;durP2;ratioP2;P2;SDS_P1;SDS_P2;PMS_P1;PMS_P2;Temp;Humidity;BMP_temperature;BMP_pressure;BME280_temperature;BME280_humidity;BME280_pressure;Samples;Min_cycle;Max_cycle;Signal;HPM_P1;HPM_P2
2022/03/03 00:00:33;;;;;;;2.45;1.13;;;20.90;76.70;;;;;;4933127;28;96026;-45
2022/03/03 00:03:04;;;;;;;3.15;1.45;;;20.90;76.70;;;;;;4942846;28;95846;-45
2022/03/03 00:05:35;;;;;;;1.05;0.70;;;20.90;76.70;;;;;;4959012;28;96012;-46
2022/03/03 00:08:05;;;;;;;;;;;20.90;76.70;;;;;;4948538;28;95926;-45
2022/03/03 00:10:36;;;;;;;1.13;0.90;;;21.00;76.80;;;;;;4949617;28;95907;-46
2022/03/03 00:13:08;;;;;;;;;;;21.00;76.70;;;;;;4952106;28;96105;-46
2022/03/03 00:15:39;;;;;;;1.63;0.80;;;21.00;76.70;;;;;;4953046;28;95884;-45
2022/03/03 00:18:09;;;;;;;2.08;1.05;;;21.00;76.80;;;;;;4945739;28;95583;-46
2022/03/03 00:20:40;;;;;;;0.85;0.80;;;21.00;76.70;;;;;;4948109;28;95919;-46
2022/03/03 00:23:10;;;;;;;2.40;0.98;;;21.10;76.80;;;;;;4956080;28;96280;-45
2022/03/03 00:25:42;;;;;;;2.65;1.00;;;21.10;76.80;;;;;;4945864;28;97504;-45
2022/03/03 00:28:12;;;;;;;;;;;21.10;76.80;;;;;;4948075;28;95596;-45
2022/03/03 00:30:42;;;;;;;1.75;1.30;;;21.10;76.80;;;;;;4951322;28;96109;-45
2022/03/03 00:33:13;;;;;;;1.75;1.10;;;21.10;76.80;;;;;;4959779;28;95262;-45
2022/03/03 00:35:45;;;;;;;2.47;0.88;;;21.20;76.90;;;;;;4961789;28;95147;-46
2022/03/03 00:38:17;;;;;;;1.75;0.88;;;21.20;76.90;;;;;;4964731;28;95940;-45
2022/03/03 00:40:51;;;;;;;1.20;1.10;;;21.20;76.90;;;;;;4955232;28;98455;-45
2022/03/03 00:43:22;;;;;;;3.50;1.40;;;21.20;76.90;;;;;;4935310;28;100159;-45
2022/03/03 00:45:52;;;;;;;1.80;1.17;;;21.30;76.80;;;;;;4956760;28;95568;-45
2022/03/03 00:48:23;;;;;;;1.33;1.00;;;21.30;76.80;;;;;;4951695;28;95933;-47
2022/03/03 00:50:52;;;;;;;4.30;1.27;;;21.30;76.80;;;;;;4953199;28;95790;-47
2022/03/03 00:53:25;;;;;;;2.70;1.00;;;21.30;76.90;;;;;;4962905;28;96062;-46
2022/03/03 00:55:55;;;;;;;2.80;1.27;;;21.40;76.70;;;;;;4962563;28;95798;-46
2022/03/03 00:58:27;;;;;;;2.08;1.00;;;21.40;76.90;;;;;;4954188;28;95882;-46
2022/03/03 01:00:58;;;;;;;1.73;1.00;;;21.40;76.80;;;;;;4939763;28;96123;-46
2022/03/03 01:03:31;;;;;;;3.63;1.10;;;21.50;76.70;;;;;;4944738;28;96501;-45
2022/03/03 01:06:01;;;;;;;0.70;0.70;;;21.50;76.70;;;;;;4950648;28;95327;-46
2022/03/03 01:08:32;;;;;;;2.00;1.20;;;21.50;76.70;;;;;;4948987;28;95772;-46
2022/03/03 01:11:05;;;;;;;1.00;0.88;;;21.50;76.70;;;;;;4949370;28;95816;-46
2022/03/03 01:13:37;;;;;;;1.83;1.20;;;21.60;76.70;;;;;;4949101;28;96900;-46
2022/03/03 01:16:12;;;;;;;1.50;1.25;;;21.60;76.70;;;;;;4952889;28;95862;-46
2022/03/03 01:18:43;;;;;;;1.90;1.00;;;21.70;76.70;;;;;;4958525;28;95803;-44
2022/03/03 01:21:16;;;;;;;1.08;0.98;;;21.70;76.70;;;;;;4964828;28;96220;-45
2022/03/03 01:23:47;;;;;;;3.72;0.90;;;21.70;76.70;;;;;;4960508;28;95748;-44
2022/03/03 01:26:18;;;;;;;2.08;1.00;;;21.80;76.70;;;;;;4969124;28;95653;-45
2022/03/03 01:28:49;;;;;;;1.40;1.00;;;21.90;76.70;;;;;;4961170;28;95433;-45
2022/03/03 01:31:20;;;;;;;1.73;1.20;;;21.90;76.70;;;;;;4958331;28;96067;-44
2022/03/03 01:33:51;;;;;;;1.23;0.80;;;21.90;76.60;;;;;;4961923;28;97124;-45
2022/03/03 01:36:22;;;;;;;1.30;1.20;;;21.90;76.60;;;;;;4968984;28;95902;-44
2022/03/03 01:38:53;;;;;;;;;;;22.00;76.60;;;;;;4965175;28;95436;-45
2022/03/03 01:41:23;;;;;;;1.67;1.20;;;22.00;76.60;;;;;;4946133;28;96051;-45
2022/03/03 01:43:55;;;;;;;1.63;0.95;;;22.10;76.50;;;;;;4942729;28;95856;-44
2022/03/03 01:46:25;;;;;;;2.15;0.98;;;22.10;76.50;;;;;;4957093;28;95486;-45
2022/03/03 01:48:55;;;;;;;2.53;1.30;;;22.10;76.50;;;;;;4953451;28;96307;-45
2022/03/03 01:51:25;;;;;;;1.42;1.27;;;22.20;76.30;;;;;;4945636;28;96017;-45
2022/03/03 01:53:57;;;;;;;2.40;1.10;;;22.20;76.30;;;;;;4950157;28;95473;-46
2022/03/03 01:56:27;;;;;;;;;;;22.30;76.20;;;;;;4946122;28;95192;-47
2022/03/03 01:58:59;;;;;;;1.20;0.90;;;22.30;76.20;;;;;;4950359;28;95743;-44
2022/03/03 02:01:31;;;;;;;1.98;0.88;;;22.30;76.20;;;;;;4943220;28;96636;-44
2022/03/03 02:04:06;;;;;;;2.13;0.88;;;22.40;76.20;;;;;;4946895;28;95750;-45
2022/03/03 02:06:37;;;;;;;2.70;1.42;;;22.40;76.10;;;;;;4948971;28;95679;-44
2022/03/03 02:09:09;;;;;;;1.00;0.95;;;22.50;76.10;;;;;;4948639;28;95562;-44
2022/03/03 02:11:40;;;;;;;1.17;1.00;;;22.50;76.00;;;;;;4949827;28;96058;-44
2022/03/03 02:14:11;;;;;;;;;;;22.50;76.00;;;;;;4958500;28;95612;-44
2022/03/03 02:16:42;;;;;;;2.75;0.93;;;22.60;75.90;;;;;;4941935;28;95953;-44
2022/03/03 02:19:20;;;;;;;0.67;0.67;;;22.60;75.80;;;;;;4948367;28;96736;-44
2022/03/03 02:21:53;;;;;;;1.63;0.70;;;22.60;75.70;;;;;;4961027;28;97866;-44
2022/03/03 02:24:23;;;;;;;3.28;1.00;;;22.70;75.70;;;;;;4948562;28;96100;-45
2022/03/03 02:26:56;;;;;;;2.10;1.10;;;22.80;75.70;;;;;;4946918;28;95225;-44
2022/03/03 02:29:28;;;;;;;1.17;1.08;;;22.80;75.50;;;;;;4949561;28;95579;-44
2022/03/03 02:31:59;;;;;;;;;;;22.80;75.50;;;;;;4945407;28;96704;-44
2022/03/03 02:34:29;;;;;;;;;;;22.90;75.50;;;;;;4951819;28;96394;-43
2022/03/03 02:37:00;;;;;;;1.05;0.93;;;22.90;75.40;;;;;;4948831;28;95708;-44
2022/03/03 02:39:31;;;;;;;1.30;0.90;;;22.90;75.30;;;;;;4952244;28;96195;-44
2022/03/03 02:42:02;;;;;;;1.85;0.90;;;23.00;75.30;;;;;;4928257;28;95914;-44
2022/03/03 02:44:33;;;;;;;1.15;0.80;;;23.00;75.10;;;;;;4940447;28;95908;-44
2022/03/03 02:47:04;;;;;;;1.02;0.98;;;23.00;75.10;;;;;;4941018;28;95644;-46
2022/03/03 02:49:37;;;;;;;1.25;1.15;;;23.10;75.00;;;;;;4949491;28;95483;-44
2022/03/03 02:52:09;;;;;;;2.00;1.20;;;23.10;75.10;;;;;;4950044;28;96655;-44
2022/03/03 02:54:40;;;;;;;2.13;1.17;;;23.10;75.70;;;;;;4956627;28;95973;-46
2022/03/03 03:00:01;;;;;;;2.83;1.17;;;23.30;74.90;;;;;;4942248;28;95552;-46
2022/03/03 03:02:33;;;;;;;1.67;0.90;;;23.30;75.50;;;;;;4944927;28;96203;-46
2022/03/03 03:05:05;;;;;;;1.33;1.23;;;23.30;74.80;;;;;;4964431;28;95998;-46
2022/03/03 03:07:35;;;;;;;1.33;1.23;;;23.40;74.80;;;;;;4955891;28;95719;-46
2022/03/03 03:10:06;;;;;;;2.10;0.90;;;23.40;74.70;;;;;;4954523;28;95873;-46
2022/03/03 03:12:38;;;;;;;1.45;1.20;;;23.40;74.70;;;;;;4955271;28;97676;-46
2022/03/03 03:15:10;;;;;;;3.15;1.10;;;23.50;74.60;;;;;;4947959;28;95742;-46
2022/03/03 03:17:42;;;;;;;1.73;1.00;;;23.50;74.50;;;;;;4958058;28;95863;-46
2022/03/03 03:20:14;;;;;;;1.35;0.98;;;23.50;74.40;;;;;;4959343;28;95326;-46
2022/03/03 03:22:46;;;;;;;1.70;1.10;;;23.60;74.40;;;;;;4963975;28;96138;-46
2022/03/03 03:25:18;;;;;;;1.67;0.93;;;23.70;74.50;;;;;;4959289;28;98168;-46
2022/03/03 03:27:49;;;;;;;1.88;1.00;;;23.70;74.30;;;;;;4964085;28;95642;-44
2022/03/03 03:30:18;;;;;;;2.20;1.23;;;23.70;74.20;;;;;;4956117;28;95703;-43
2022/03/03 03:32:49;;;;;;;2.88;1.20;;;23.70;74.10;;;;;;4947383;28;102566;-44
2022/03/03 03:35:23;;;;;;;1.65;1.10;;;23.80;74.20;;;;;;4941653;28;96015;-44
2022/03/03 03:37:55;;;;;;;1.33;1.08;;;23.80;74.60;;;;;;4953383;28;95537;-43
2022/03/03 03:40:25;;;;;;;1.17;0.98;;;23.90;74.00;;;;;;4944654;28;96399;-44
2022/03/03 03:42:56;;;;;;;3.03;1.23;;;23.90;73.90;;;;;;4928801;28;96499;-44
2022/03/03 03:45:27;;;;;;;2.08;0.88;;;23.90;73.90;;;;;;4940304;28;95926;-46
2022/03/03 03:47:58;;;;;;;3.60;1.30;;;24.00;73.90;;;;;;4948604;28;95943;-46
2022/03/03 03:50:29;;;;;;;5.65;1.70;;;24.10;73.80;;;;;;4961034;28;96657;-46
2022/03/03 03:52:59;;;;;;;2.38;1.35;;;24.10;73.70;;;;;;4958563;28;96512;-46
2022/03/03 03:55:30;;;;;;;1.95;1.02;;;24.10;73.60;;;;;;4949656;28;96113;-46
2022/03/03 03:58:01;;;;;;;4.05;1.10;;;24.20;73.70;;;;;;4942821;28;95829;-46
2022/03/03 04:00:32;;;;;;;2.17;1.17;;;24.20;73.60;;;;;;4939696;28;95756;-46
2022/03/03 04:03:03;;;;;;;2.53;1.02;;;24.30;73.60;;;;;;4961434;28;98236;-46
2022/03/03 04:05:35;;;;;;;2.30;1.25;;;24.30;73.70;;;;;;4961087;28;95872;-46
2022/03/03 04:08:06;;;;;;;2.58;1.13;;;24.30;73.70;;;;;;4958154;28;95341;-44
2022/03/03 04:10:37;;;;;;;1.60;0.93;;;24.30;73.20;;;;;;4962605;28;95976;-44
2022/03/03 04:13:07;;;;;;;;;;;24.30;72.40;;;;;;4963792;28;96224;-44
2022/03/03 04:15:38;;;;;;;1.67;1.00;;;24.20;72.20;;;;;;4945840;28;95540;-44
2022/03/03 04:18:10;;;;;;;1.63;0.98;;;24.20;71.60;;;;;;4928989;28;95806;-44
2022/03/03 04:20:41;;;;;;;2.22;0.90;;;24.20;71.00;;;;;;4931513;28;95412;-44
2022/03/03 04:23:12;;;;;;;1.85;1.15;;;24.20;70.50;;;;;;4931545;28;96374;-44
2022/03/03 04:25:44;;;;;;;2.22;1.00;;;24.10;69.90;;;;;;4931323;28;95869;-44
2022/03/03 04:28:15;;;;;;;1.60;1.00;;;24.10;69.40;;;;;;4931303;28;95667;-44
2022/03/03 04:30:45;;;;;;;1.73;1.10;;;24.10;68.80;;;;;;4923047;28;95845;-44
2022/03/03 04:33:15;;;;;;;3.05;1.55;;;24.10;68.40;;;;;;4946228;28;96187;-44
2022/03/03 04:35:53;;;;;;;1.33;1.05;;;24.00;67.90;;;;;;4953494;28;95522;-44
2022/03/03 04:38:24;;;;;;;2.60;1.00;;;24.00;67.20;;;;;;4957759;28;95713;-44
2022/03/03 04:40:55;;;;;;;3.03;1.35;;;24.00;67.00;;;;;;4942139;28;96094;-44
2022/03/03 04:43:26;;;;;;;3.50;1.10;;;24.00;66.50;;;;;;4934345;28;95896;-44
2022/03/03 04:45:57;;;;;;;3.03;1.20;;;24.00;66.00;;;;;;4945755;28;95897;-46
2022/03/03 04:48:31;;;;;;;1.63;1.35;;;24.00;65.70;;;;;;4951949;28;96059;-46
2022/03/03 04:51:03;;;;;;;3.00;1.17;;;23.90;65.20;;;;;;4950014;28;95907;-46
2022/03/03 04:53:34;;;;;;;1.60;1.10;;;23.90;64.30;;;;;;4951254;28;96273;-46
2022/03/03 04:56:05;;;;;;;2.17;0.97;;;24.00;64.40;;;;;;4949139;28;96052;-45
2022/03/03 04:58:38;;;;;;;1.98;1.10;;;23.90;64.10;;;;;;4944765;28;95236;-45
2022/03/03 05:01:08;;;;;;;2.58;1.33;;;23.90;63.80;;;;;;4946214;28;96005;-45
2022/03/03 05:03:39;;;;;;;;;;;23.90;63.40;;;;;;4966040;28;95932;-45
2022/03/03 05:06:09;;;;;;;1.33;1.10;;;23.90;63.10;;;;;;4963955;28;95776;-45
2022/03/03 05:08:39;;;;;;;2.90;1.40;;;23.90;62.80;;;;;;4965225;28;95745;-45
2022/03/03 05:11:10;;;;;;;2.63;1.30;;;23.90;62.30;;;;;;4964800;28;95842;-45
2022/03/03 05:13:41;;;;;;;3.45;1.02;;;23.90;62.20;;;;;;4962811;28;96690;-43
2022/03/03 05:16:13;;;;;;;1.92;1.25;;;23.90;61.90;;;;;;4950655;28;95699;-43
2022/03/03 05:18:44;;;;;;;2.05;1.08;;;23.90;61.60;;;;;;4956982;28;95663;-43
2022/03/03 05:21:16;;;;;;;0.93;0.77;;;23.90;61.40;;;;;;4951119;28;95904;-43
2022/03/03 05:23:47;;;;;;;1.48;1.17;;;23.90;61.10;;;;;;4949805;28;96065;-43
2022/03/03 05:26:18;;;;;;;0.98;0.80;;;23.90;60.70;;;;;;4946939;28;95441;-43
2022/03/03 05:28:49;;;;;;;;;;;23.90;60.50;;;;;;4951158;28;95828;-43
2022/03/03 05:31:19;;;;;;;3.05;0.80;;;23.90;60.30;;;;;;4956330;28;95794;-43
2022/03/03 05:33:50;;;;;;;2.67;1.00;;;23.90;60.00;;;;;;4960188;28;95897;-43
2022/03/03 05:36:25;;;;;;;2.25;0.98;;;23.90;59.80;;;;;;4949980;28;95855;-43
2022/03/03 05:38:58;;;;;;;1.05;0.85;;;23.90;59.60;;;;;;4949708;28;95850;-43
2022/03/03 05:41:29;;;;;;;3.22;1.23;;;23.90;59.20;;;;;;4932296;28;95768;-43
2022/03/03 05:44:01;;;;;;;4.28;1.30;;;23.90;59.10;;;;;;4950000;28;96377;-43
2022/03/03 05:46:31;;;;;;;2.20;1.35;;;23.90;59.00;;;;;;4948297;28;98035;-46
2022/03/03 05:49:02;;;;;;;2.10;1.00;;;23.90;58.70;;;;;;4955176;28;95885;-46
2022/03/03 05:51:35;;;;;;;5.22;1.30;;;23.90;58.50;;;;;;4948769;28;95778;-46
2022/03/03 05:54:05;;;;;;;3.55;1.73;;;23.80;58.50;;;;;;4951055;28;96125;-46
2022/03/03 05:56:40;;;;;;;3.33;1.10;;;23.90;58.10;;;;;;4950018;28;95775;-46
2022/03/03 05:59:15;;;;;;;1.38;1.23;;;23.80;58.10;;;;;;4946690;28;97270;-45
2022/03/03 06:01:46;;;;;;;3.03;1.25;;;23.80;57.70;;;;;;4949263;28;95615;-46
2022/03/03 06:04:18;;;;;;;2.22;0.90;;;23.80;57.70;;;;;;4949699;28;96118;-47
2022/03/03 06:07:10;;;;;;;3.88;1.40;;;23.80;57.40;;;;;;4955319;28;97670;-46
2022/03/03 06:09:42;;;;;;;4.63;1.52;;;23.80;57.20;;;;;;4949100;28;95597;-46
2022/03/03 06:12:41;;;;;;;3.30;1.48;;;23.80;57.20;;;;;;4950575;28;95850;-46
2022/03/03 06:15:14;;;;;;;6.50;1.63;;;23.80;56.90;;;;;;4945509;28;96771;-46
2022/03/03 06:17:49;;;;;;;3.03;1.63;;;23.80;56.70;;;;;;4947372;28;96298;-44
2022/03/03 06:20:20;;;;;;;1.80;1.10;;;23.80;56.60;;;;;;4948895;28;95930;-44
2022/03/03 06:22:51;;;;;;;1.17;1.02;;;23.80;56.40;;;;;;4949619;28;95369;-44
2022/03/03 06:25:23;;;;;;;1.50;0.98;;;23.80;56.30;;;;;;4945392;28;96485;-45
2022/03/03 06:27:54;;;;;;;1.98;1.05;;;23.80;55.90;;;;;;4947933;28;96392;-44
2022/03/03 06:30:25;;;;;;;3.83;1.45;;;23.80;55.90;;;;;;4947537;28;95542;-44
2022/03/03 06:32:56;;;;;;;1.52;1.10;;;23.80;55.70;;;;;;4947550;28;95429;-44
2022/03/03 06:35:28;;;;;;;3.80;1.42;;;23.80;55.60;;;;;;4947191;28;95916;-44
2022/03/03 06:37:58;;;;;;;3.58;1.13;;;23.80;55.50;;;;;;4963083;28;96012;-43
2022/03/03 06:40:29;;;;;;;3.13;1.27;;;23.80;55.20;;;;;;4949014;28;97644;-44
2022/03/03 06:43:00;;;;;;;2.17;1.37;;;23.80;55.00;;;;;;4929728;28;95749;-45
2022/03/03 06:45:33;;;;;;;2.78;1.08;;;23.80;55.10;;;;;;4942282;28;96598;-46
2022/03/03 06:48:05;;;;;;;1.65;1.17;;;23.70;54.70;;;;;;4942590;28;95715;-45
2022/03/03 06:50:39;;;;;;;2.45;1.20;;;23.70;54.60;;;;;;4959490;28;96499;-46
2022/03/03 06:53:10;;;;;;;2.55;1.17;;;23.70;54.90;;;;;;4957953;28;95759;-46
2022/03/03 06:55:46;;;;;;;1.80;1.30;;;23.70;54.20;;;;;;4949813;28;96129;-46
2022/03/03 06:58:19;;;;;;;1.08;0.95;;;23.70;54.20;;;;;;4959511;28;95529;-44
2022/03/03 07:00:53;;;;;;;2.50;0.90;;;23.70;54.00;;;;;;4944489;28;95673;-44
2022/03/03 07:03:25;;;;;;;6.13;1.42;;;23.70;54.00;;;;;;4948965;28;95856;-44
2022/03/03 07:05:56;;;;;;;3.17;1.45;;;23.70;53.60;;;;;;4947560;28;95920;-44
2022/03/03 07:08:27;;;;;;;2.25;1.23;;;23.70;53.60;;;;;;4945780;28;98474;-44
2022/03/03 07:10:58;;;;;;;3.60;1.20;;;23.70;53.30;;;;;;4948366;28;96473;-44
2022/03/03 07:13:30;;;;;;;1.23;0.90;;;23.70;53.30;;;;;;4948081;28;95681;-44
2022/03/03 07:16:28;;;;;;;2.60;1.48;;;23.70;53.10;;;;;;4942010;28;98270;-44
2022/03/03 07:19:04;;;;;;;2.92;1.40;;;23.70;53.10;;;;;;4953334;28;96278;-45
2022/03/03 07:22:02;;;;;;;1.05;0.93;;;23.70;53.00;;;;;;4947773;28;95863;-44
2022/03/03 07:24:40;;;;;;;2.38;1.42;;;23.70;52.70;;;;;;4946620;28;95839;-44
2022/03/03 07:27:20;;;;;;;1.52;0.90;;;23.70;52.60;;;;;;4946735;28;96258;-44
2022/03/03 07:30:12;;;;;;;1.48;1.00;;;23.60;52.50;;;;;;4951351;28;95697;-44
2022/03/03 07:32:48;;;;;;;1.58;1.20;;;23.60;52.40;;;;;;4947451;28;95867;-44
2022/03/03 07:35:23;;;;;;;1.42;0.90;;;23.60;52.00;;;;;;4945076;28;95616;-44
2022/03/03 07:37:58;;;;;;;2.10;1.17;;;23.60;52.10;;;;;;4943698;28;96001;-44
2022/03/03 07:40:30;;;;;;;3.50;0.82;;;23.60;52.10;;;;;;4940447;28;95912;-44
2022/03/03 07:43:01;;;;;;;2.45;0.85;;;23.60;52.00;;;;;;4933893;28;95899;-44
2022/03/03 07:45:33;;;;;;;4.00;1.00;;;23.60;51.90;;;;;;4943972;28;95354;-47
2022/03/03 07:48:04;;;;;;;1.73;1.30;;;23.60;51.90;;;;;;4952544;28;96125;-45
2022/03/03 07:50:39;;;;;;;3.90;1.07;;;23.60;51.90;;;;;;4959534;28;96021;-45
2022/03/03 07:53:13;;;;;;;2.15;1.10;;;23.60;51.70;;;;;;4965275;28;95407;-45
2022/03/03 07:55:46;;;;;;;1.38;0.98;;;23.60;51.60;;;;;;4960777;28;95472;-45
2022/03/03 07:58:19;;;;;;;2.03;1.15;;;23.50;51.40;;;;;;4963828;28;96108;-45
2022/03/03 08:00:53;;;;;;;1.88;0.90;;;23.50;51.50;;;;;;4944344;28;98705;-45
2022/03/03 08:03:25;;;;;;;2.60;1.20;;;23.50;51.60;;;;;;4950917;28;95753;-45
2022/03/03 08:05:57;;;;;;;3.33;1.33;;;23.50;51.60;;;;;;4951622;28;95328;-44
2022/03/03 08:08:31;;;;;;;4.95;1.15;;;23.60;51.80;;;;;;4957048;28;97185;-45
2022/03/03 08:11:07;;;;;;;2.42;1.23;;;23.60;52.00;;;;;;4950225;28;95983;-45
2022/03/03 08:13:39;;;;;;;2.08;1.08;;;23.60;52.30;;;;;;4955556;28;95890;-45
2022/03/03 08:16:11;;;;;;;1.67;1.20;;;23.60;52.70;;;;;;4948490;28;95748;-45
2022/03/03 08:18:41;;;;;;;4.85;1.48;;;23.60;52.80;;;;;;4954152;28;96683;-45
2022/03/03 08:21:16;;;;;;;1.50;0.85;;;23.60;53.00;;;;;;4968869;28;96409;-45
2022/03/03 08:23:48;;;;;;;2.05;1.20;;;23.60;53.30;;;;;;4967024;28;95260;-44
2022/03/03 08:26:21;;;;;;;2.08;1.25;;;23.60;53.40;;;;;;4961476;28;95432;-45
2022/03/03 08:28:52;;;;;;;1.95;1.35;;;23.70;53.70;;;;;;4962199;28;96347;-45
2022/03/03 08:31:32;;;;;;;3.07;1.50;;;23.70;53.90;;;;;;4955305;28;96123;-45
2022/03/03 08:34:12;;;;;;;3.10;1.73;;;23.70;54.10;;;;;;4960677;28;95347;-44
2022/03/03 08:36:54;;;;;;;2.88;1.10;;;23.70;54.20;;;;;;4951617;28;95787;-45
2022/03/03 08:39:28;;;;;;;3.10;1.42;;;23.70;54.40;;;;;;4961317;28;96377;-45
2022/03/03 08:42:02;;;;;;;2.70;1.15;;;23.70;54.50;;;;;;4930303;28;96089;-44
2022/03/03 08:44:54;;;;;;;2.95;1.50;;;23.70;55.10;;;;;;4954352;28;98009;-45
2022/03/03 08:47:25;;;;;;;3.67;1.20;;;23.70;55.90;;;;;;4946340;28;95788;-45
2022/03/03 08:49:57;;;;;;;;;;;23.70;56.50;;;;;;4953784;28;96186;-45
2022/03/03 08:52:48;;;;;;;2.42;1.13;;;23.70;56.90;;;;;;4951646;28;95972;-45
2022/03/03 08:55:19;;;;;;;2.63;1.30;;;23.70;57.60;;;;;;4960614;28;95848;-45
2022/03/03 08:57:52;;;;;;;2.38;1.40;;;23.70;58.00;;;;;;4949916;28;95820;-45
2022/03/03 09:00:25;;;;;;;2.45;1.20;;;23.80;58.60;;;;;;4949028;28;97251;-45
2022/03/03 09:02:57;;;;;;;2.70;1.48;;;23.80;59.00;;;;;;4967494;28;98238;-44
2022/03/03 09:05:28;;;;;;;3.70;1.50;;;23.80;59.40;;;;;;4963087;28;95349;-44
2022/03/03 09:07:59;;;;;;;2.53;1.10;;;23.90;60.10;;;;;;4968190;28;95945;-45
2022/03/03 09:10:30;;;;;;;2.30;1.15;;;23.90;60.30;;;;;;4968438;28;95767;-45
2022/03/03 09:13:01;;;;;;;3.17;1.45;;;23.90;60.70;;;;;;4964230;28;96037;-44
2022/03/03 09:15:35;;;;;;;3.17;1.55;;;23.90;60.90;;;;;;4956408;28;96112;-45
2022/03/03 09:18:07;;;;;;;6.93;1.95;;;23.90;61.20;;;;;;4947442;28;95738;-45
2022/03/03 09:20:38;;;;;;;;;;;23.90;61.50;;;;;;4956321;28;96218;-44
2022/03/03 09:23:09;;;;;;;2.63;1.20;;;23.90;61.70;;;;;;4963332;28;95691;-44
2022/03/03 09:25:41;;;;;;;1.63;1.35;;;23.90;62.10;;;;;;4945124;28;95411;-45
2022/03/03 09:28:12;;;;;;;5.80;1.60;;;23.90;62.20;;;;;;4950421;28;95691;-45
2022/03/03 09:30:47;;;;;;;2.47;1.27;;;23.80;62.50;;;;;;4931370;28;96492;-44
2022/03/03 09:33:18;;;;;;;2.47;1.50;;;23.80;62.70;;;;;;4939117;28;95802;-45
2022/03/03 09:35:51;;;;;;;4.55;1.83;;;23.80;63.30;;;;;;4940863;28;96051;-45
2022/03/03 09:38:22;;;;;;;3.45;1.55;;;23.80;64.90;;;;;;4940248;28;96242;-36
2022/03/03 09:40:52;;;;;;;4.97;1.92;;;23.80;64.30;;;;;;4942202;28;97490;-37
2022/03/03 09:43:22;;;;;;;;;;;23.70;65.60;;;;;;4939955;28;95903;-36
2022/03/03 09:45:52;;;;;;;9.00;2.42;;;23.80;66.20;;;;;;4947048;28;95907;-36
2022/03/03 09:48:22;;;;;;;6.57;2.03;;;23.80;66.90;;;;;;4935145;28;95643;-36
2022/03/03 09:50:53;;;;;;;3.25;1.73;;;23.80;66.20;;;;;;4931288;28;97667;-35
2022/03/03 09:53:24;;;;;;;6.07;2.08;;;23.90;66.30;;;;;;4933524;28;95801;-36
2022/03/03 09:55:55;;;;;;;4.20;1.50;;;23.90;66.50;;;;;;4935680;28;96580;-35
2022/03/03 09:58:27;;;;;;;4.13;1.70;;;23.90;67.00;;;;;;4936198;28;95998;-36
2022/03/03 10:00:58;;;;;;;4.82;1.92;;;23.90;67.30;;;;;;4933828;28;98364;-36
2022/03/03 10:03:37;;;;;;;7.75;2.60;;;23.90;67.50;;;;;;4955345;28;95953;-36
2022/03/03 10:06:11;;;;;;;4.53;1.67;;;23.90;67.60;;;;;;4953769;28;95912;-36
2022/03/03 10:08:44;;;;;;;6.03;2.13;;;24.00;67.20;;;;;;4951350;28;96451;-35
2022/03/03 10:11:15;;;;;;;7.50;2.03;;;24.00;67.30;;;;;;4950484;28;96169;-35
2022/03/03 10:13:56;;;;;;;4.88;1.42;;;24.10;67.10;;;;;;4949896;28;95873;-35
2022/03/03 10:16:30;;;;;;;3.78;1.65;;;24.10;66.40;;;;;;4944119;28;98908;-35
2022/03/03 10:19:06;;;;;;;3.30;1.55;;;24.10;66.20;;;;;;4948357;28;96119;-35
2022/03/03 10:21:38;;;;;;;3.72;1.60;;;24.00;65.40;;;;;;4951836;28;95942;-36
2022/03/03 10:24:21;;;;;;;2.72;1.27;;;24.00;64.80;;;;;;4947026;28;96267;-35
2022/03/03 10:27:06;;;;;;;3.00;1.42;;;24.00;64.40;;;;;;4945570;28;96115;-35
2022/03/03 10:29:36;;;;;;;7.07;1.40;;;23.90;63.60;;;;;;4949120;28;95449;-44
2022/03/03 10:32:23;;;;;;;6.30;2.10;;;23.90;63.90;;;;;;4943397;28;96628;-43
2022/03/03 10:35:02;;;;;;;4.13;1.90;;;23.90;63.80;;;;;;4949339;28;95907;-43
2022/03/03 10:37:33;;;;;;;3.28;1.35;;;24.00;63.50;;;;;;4948976;28;95953;-44
2022/03/03 10:40:09;;;;;;;4.60;1.58;;;23.90;63.70;;;;;;4945858;28;97561;-44
2022/03/03 10:42:44;;;;;;;3.65;1.60;;;24.00;63.80;;;;;;4925213;28;95862;-44
2022/03/03 10:45:19;;;;;;;3.35;1.40;;;24.00;63.60;;;;;;4944038;28;95701;-46
2022/03/03 10:48:06;;;;;;;4.72;1.90;;;24.00;63.60;;;;;;4950109;28;95997;-46
2022/03/03 10:50:48;;;;;;;6.20;1.77;;;24.00;63.80;;;;;;4952859;28;96386;-45
2022/03/03 10:53:20;;;;;;;3.38;1.70;;;24.10;64.40;;;;;;4953229;28;96582;-46
2022/03/03 10:56:06;;;;;;;4.72;1.65;;;24.10;64.20;;;;;;4956188;28;96432;-45
2022/03/03 10:58:58;;;;;;;5.68;1.80;;;24.10;64.80;;;;;;4954901;28;95885;-46
2022/03/03 11:01:30;;;;;;;6.05;2.10;;;24.10;65.00;;;;;;4946442;28;96545;-46
2022/03/03 11:04:05;;;;;;;2.63;1.50;;;24.10;65.00;;;;;;4956162;28;95996;-44
2022/03/03 11:06:35;;;;;;;6.25;1.92;;;24.10;65.10;;;;;;4954206;28;95965;-46
2022/03/03 11:09:07;;;;;;;2.72;1.40;;;24.10;65.30;;;;;;4954882;28;95409;-44
2022/03/03 11:11:38;;;;;;;4.38;1.95;;;24.20;65.60;;;;;;4954028;28;95704;-43
2022/03/03 11:14:11;;;;;;;4.13;1.58;;;24.10;65.40;;;;;;4952792;28;96157;-43
2022/03/03 11:16:43;;;;;;;4.43;1.25;;;24.10;65.50;;;;;;4947149;28;96474;-43
2022/03/03 11:19:19;;;;;;;7.55;1.90;;;24.10;65.70;;;;;;4955106;28;95872;-44
2022/03/03 11:21:50;;;;;;;;;;;24.10;65.90;;;;;;4955604;28;96427;-45
2022/03/03 11:24:23;;;;;;;4.18;1.80;;;24.10;65.90;;;;;;4955676;28;96211;-44
2022/03/03 11:26:54;;;;;;;5.50;1.98;;;24.10;66.30;;;;;;4953102;28;95765;-44
2022/03/03 11:29:24;;;;;;;3.95;1.83;;;24.10;66.60;;;;;;4954801;28;95900;-43
2022/03/03 11:32:17;;;;;;;2.75;1.27;;;24.10;66.50;;;;;;4949752;28;96130;-44
2022/03/03 11:34:49;;;;;;;5.32;1.50;;;24.10;66.40;;;;;;4954948;28;96222;-44
2022/03/03 11:37:23;;;;;;;4.30;2.00;;;24.10;66.80;;;;;;4944343;28;95922;-44
2022/03/03 11:40:05;;;;;;;3.03;1.52;;;24.10;66.70;;;;;;4959119;28;96075;-44
2022/03/03 11:42:49;;;;;;;3.35;1.65;;;24.10;66.90;;;;;;4924172;28;96500;-43
2022/03/03 11:45:34;;;;;;;2.33;1.35;;;24.10;66.80;;;;;;4952012;28;96092;-46
2022/03/03 11:48:15;;;;;;;4.47;1.63;;;24.10;66.90;;;;;;4941621;28;102612;-44
2022/03/03 11:50:46;;;;;;;2.95;1.55;;;24.10;67.10;;;;;;4946796;28;96167;-44
2022/03/03 11:53:23;;;;;;;2.95;1.83;;;24.10;67.10;;;;;;4954380;28;95528;-44
2022/03/03 11:56:03;;;;;;;4.20;1.42;;;24.10;67.10;;;;;;4948397;28;96285;-44
2022/03/03 11:58:43;;;;;;;4.97;1.55;;;24.10;67.00;;;;;;4944411;28;96098;-45
2022/03/03 12:01:14;;;;;;;5.07;1.88;;;24.10;67.10;;;;;;4939127;28;96003;-44
2022/03/03 12:04:05;;;;;;;4.60;1.80;;;24.10;67.20;;;;;;4958176;28;95677;-42
2022/03/03 12:06:38;;;;;;;3.70;1.67;;;24.00;67.20;;;;;;4955665;28;96738;-43
2022/03/03 12:09:20;;;;;;;4.63;1.80;;;24.00;67.10;;;;;;4961866;28;95822;-44
2022/03/03 12:12:14;;;;;;;4.43;1.55;;;24.00;67.20;;;;;;4957095;28;95650;-45
2022/03/03 12:15:01;;;;;;;3.33;1.60;;;23.90;67.40;;;;;;4941681;28;95827;-44
2022/03/03 12:17:56;;;;;;;5.85;1.90;;;23.90;67.50;;;;;;4944367;28;97917;-44
2022/03/03 12:20:38;;;;;;;5.18;2.03;;;23.90;67.50;;;;;;4943449;28;95856;-44
2022/03/03 12:23:35;;;;;;;4.63;1.70;;;23.90;67.50;;;;;;4946687;28;95838;-44
2022/03/03 12:26:07;;;;;;;2.42;1.40;;;23.90;67.70;;;;;;4945813;28;95782;-44
2022/03/03 12:28:47;;;;;;;7.13;2.47;;;23.80;67.60;;;;;;4946052;28;95933;-44
2022/03/03 12:31:44;;;;;;;3.85;1.55;;;23.80;67.70;;;;;;4945891;28;95793;-43
2022/03/03 12:34:21;;;;;;;3.75;1.67;;;23.70;68.00;;;;;;4948740;28;95337;-43
2022/03/03 12:36:56;;;;;;;3.88;1.85;;;23.70;67.90;;;;;;4950996;28;96208;-44
2022/03/03 12:39:27;;;;;;;5.30;2.28;;;23.70;68.00;;;;;;4946551;28;96595;-45
2022/03/03 12:41:58;;;;;;;5.17;1.80;;;23.70;68.00;;;;;;4933458;28;96124;-45
2022/03/03 12:44:35;;;;;;;3.42;2.13;;;23.60;68.10;;;;;;4944561;28;96231;-44
2022/03/03 12:47:07;;;;;;;3.83;1.30;;;23.60;68.20;;;;;;4947223;28;95875;-41
2022/03/03 12:49:40;;;;;;;7.20;2.15;;;23.60;68.10;;;;;;4951948;28;95865;-42
2022/03/03 12:52:12;;;;;;;7.07;1.38;;;23.60;68.20;;;;;;4956689;28;95448;-44
2022/03/03 12:54:55;;;;;;;6.18;1.90;;;23.50;68.20;;;;;;4958638;28;95794;-46
2022/03/03 12:57:38;;;;;;;7.82;2.05;;;23.50;68.40;;;;;;4945656;28;95775;-46
2022/03/03 13:00:12;;;;;;;5.40;1.73;;;23.50;68.40;;;;;;4954797;28;96936;-46
2022/03/03 13:02:59;;;;;;;4.93;1.92;;;23.50;68.40;;;;;;4955991;28;95620;-45
2022/03/03 13:05:31;;;;;;;5.00;1.45;;;23.50;68.70;;;;;;4949428;28;95930;-45
2022/03/03 13:08:05;;;;;;;5.28;2.25;;;23.50;68.70;;;;;;4950187;28;95757;-45
2022/03/03 13:10:39;;;;;;;5.40;1.65;;;23.50;68.70;;;;;;4950096;28;96198;-45
2022/03/03 13:13:10;;;;;;;6.20;1.90;;;23.40;68.70;;;;;;4947676;28;95368;-45
2022/03/03 13:15:43;;;;;;;6.22;2.47;;;23.40;68.80;;;;;;4941343;28;95312;-45
2022/03/03 13:18:18;;;;;;;3.85;1.95;;;23.40;69.10;;;;;;4960194;28;95323;-45
2022/03/03 13:21:05;;;;;;;6.95;1.63;;;23.40;69.00;;;;;;4958324;28;96070;-42
2022/03/03 13:23:41;;;;;;;7.32;2.17;;;23.30;68.90;;;;;;4954520;28;96283;-43
2022/03/03 13:26:23;;;;;;;7.43;2.22;;;23.40;69.00;;;;;;4954207;28;96327;-42